ADDS METAR Data INFO
IDs: Format: Raw Decoded Include TAF

Data at: 0402 UTC 23 Sep 2017

KPSX 221953Z AUTO 13011KT 10SM CLR 31/22 A2992 RMK AO2 SLP132 T03060217
KPSX 221853Z AUTO 12013KT 10SM SCT060 30/23 A2993 RMK AO2 LTG DSNT NW SLP134 T03000228
KPSX 221753Z AUTO 14015G20KT 10SM FEW027 SCT035 31/23 A2995 RMK AO2 SLP141 T03060228 10311 20244 58001
KPSX 221653Z AUTO 13011KT 10SM FEW025 FEW032 SCT038 30/23 A2996 RMK AO2 SLP143 T03000233
KPSX 221553Z AUTO 14010KT 10SM FEW024 SCT060 SCT100 29/24 A2996 RMK AO2 SLP145 T02940239
KPSX 221453Z AUTO 13010KT 10SM FEW024 SCT042 SCT055 28/24 A2995 RMK AO2 SLP142 T02830244 53013
KPSX 221353Z AUTO 12006KT 10SM CLR 27/24 A2993 RMK AO2 SLP135 T02720244
KPSX 221253Z AUTO 08004KT 9SM CLR 24/24 A2992 RMK AO2 SLP132 T02440244
KPSX 221153Z AUTO 12005KT 10SM CLR 24/24 A2991 RMK AO2 SLP129 70014 T02440239 10256 20244 53004
KPSX 221053Z AUTO 13006KT 10SM FEW023 25/24 A2991 RMK AO2 SLP129 T02500239
KPSX 220953Z AUTO 14006KT 10SM CLR 24/23 A2990 RMK AO2 SLP124 T02440233
KPSX 220853Z AUTO 15008KT 10SM CLR 26/23 A2990 RMK AO2 SLP126 T02560233 58006
KPSX 220753Z AUTO 13009KT 10SM CLR 25/24 A2991 RMK AO2 SLP127 T02500239
KPSX 220653Z AUTO 13007KT 10SM SCT021 SCT027 26/24 A2992 RMK AO2 SLP131 T02560244
KPSX 220650Z AUTO 14007KT 10SM BKN021 26/24 A2992 RMK AO2
KPSX 220553Z AUTO 13009KT 10SM FEW055 SCT085 26/24 A2992 RMK AO2 RAB18E46 SLP132 P0000 60013 T02560239 10272 20239 403170239 58000
KPSX 220453Z AUTO 13008KT 10SM FEW023 26/24 A2993 RMK AO2 SLP134 T02560244 TSNO
KPSX 220410Z AUTO 12008KT 10SM CLR 26/24 A2993 RMK AO2 LTG DSNT N AND NW T02560244
KPSX 220353Z AUTO 13005KT 10SM VCTS FEW024 24/24 A2994 RMK AO2 LTG DSNT N AND NW RAB00E18 SLP137 P0011 T02440244
KPSX 220311Z AUTO 02006KT 4SM VCTS -RA BR SCT023 BKN031 OVC060 24/24 A2993 RMK AO2 LTG DSNT NW RAB00 P0011 T02390239
KPSX 220253Z AUTO 04007KT 10SM VCTS FEW013 BKN020 OVC041 24/24 A2992 RMK AO2 LTG DSNT NE SLP133 60002 T02390239 51015
KPSX 220251Z AUTO 04007KT 10SM VCTS FEW013 BKN022 OVC041 24/24 A2992 RMK AO2 LTG DSNT NE
KPSX 220211Z AUTO 04009KT 8SM FEW008 BKN017 24/23 A2990 RMK AO2 T02390233
KPSX 220153Z AUTO 11004KT 10SM FEW060 FEW080 SCT110 26/25 A2989 RMK AO2 RAB03E52 SLP122 P0002 T02610250
KPSX 220053Z AUTO 16008KT 10SM FEW110 27/25 A2988 RMK AO2 SLP118 T02670250
KPSX 212353Z AUTO 13008KT 10SM CLR 26/24 A2989 RMK AO2 LTG DSNT W SLP121 60001 T02560239 10317 20244 58004
KPSX 212253Z AUTO 10008KT 10SM CLR 25/23 A2990 RMK AO2 LTG DSNT W PRESFR SLP124 T02500228
KPSX 212217Z AUTO 07008KT 10SM FEW050 FEW060 25/22 A2991 RMK AO2 LTG DSNT ALQDS T02500222
KPSX 212153Z AUTO 07007KT 10SM VCTS SCT048 BKN060 26/22 A2992 RMK AO2 LTG DSNT ALQDS TSE2056B33E48 SLP130 T02560217
KPSX 212139Z AUTO 09006KT 10SM TS FEW047 26/22 A2993 RMK AO2 LTG DSNT ALQDS TSE2056B33 T02610222
KPSX 212102Z AUTO 10006KT 10SM VCTS CLR 26/21 A2991 RMK AO2 LTG DSNT NW-NE TSE2056 T02560211
KPSX 212053Z AUTO 12005KT 10SM TS CLR 26/21 A2990 RMK AO2 LTG DSNT NW-NE RAE01 TSB12 SLP124 P0000 60001 T02560206 56016
KPSX 212013Z AUTO 17011KT 10SM TS SCT033 SCT048 BKN060 27/24 A2992 RMK AO2 LTG DSNT NW-NE RAE01 TSB12 P0000 T02720244
KPSX 211953Z AUTO 17009KT 6SM VCTS -RA FEW022 SCT043 BKN060 28/26 A2992 RMK AO2 LTG DSNT NW-NE RAE1859B36 SLP130 P0001 T02830256
KPSX 211853Z AUTO 14007KT 8SM -RA FEW020 SCT065 BKN090 27/24 A2993 RMK AO2 LTG DSNT NW-NE RAB48 SLP134 P0000 T02670239
KPSX 211753Z AUTO 19012KT 10SM CLR 31/24 A2995 RMK AO2 SLP140 T03110244 10311 20267 58002
KPSX 211653Z AUTO 19012KT 10SM CLR 30/24 A2996 RMK AO2 SLP144 T03000244